Terminal Aerodrome Forecast
Issued by NWS

Current Version | Previous Version | Text Only | Print | Product List | Glossary On
Versions: 1 2 3 4 5 6 7 8 9 10 11 12 13 14 15 16 17 18 19 20 21 22
000
FTUS45 KVEF 281700
TAFHND
TAF
KHND 281738Z 2818/2918 05006KT P6SM FEW100 SCT150 BKN200
     FM281900 19012KT P6SM SCT100 BKN150
      TEMPO 2822/2901 VRB20G35KT TSRA BKN080CB
     FM290200 17010KT P6SM SCT100 BKN150=

USA.gov is the U.S. government's official web portal to all federal, state and local government web resources and services.